• Join FlightAware (Why Join?)
  • Login
  • US Flag 
09:31PM EDT


 

Airport Tracker/Info


-or-


 

Live Flight TrackerFlight Track Log ✈ SWA1618 ✈ 23-Jul-2014 ✈ KPHX - KELP

Flight Track Log - Related Links

Times and Time Zones

All times are in EDT time to prevent confusion due to time zone crossing. See the SWA1618 flight status page for this flight to view local times or setup timezone preferences in your user account.

Time Position Orientation Groundspeed Altitude Reporting Facility
EDT Latitude Longitude Course Direction KTS MPH feet Rate Location/Type
04:47PM 33.4333 -111.9333 90° East 210 242 3,200  Level Phoenix TRACON
04:48PM 33.4333 -111.8500 90° East 269 310 5,400 2,280 Climbing Phoenix TRACON
04:49PM 33.4167 -111.7667 103° East 289 333 7,900 2,040 Climbing Phoenix TRACON
04:50PM 33.3667 -111.6833 126° Southeast 329 379 9,400 2,400 Climbing Phoenix TRACON
04:51PM 33.2833 -111.7000 189° South 352 405 12,500 2,580 Climbing Phoenix TRACON
04:53PM 33.1697 -111.7539 202° Southwest 350 403 15,700 2,160 Climbing Albuquerque Center
04:54PM 33.0733 -111.7561 181° South 376 433 17,800 2,220 Climbing Albuquerque Center
04:55PM 32.9972 -111.6389 128° Southeast 375 432 20,300 2,100 Climbing Albuquerque Center
04:56PM 32.9325 -111.5364 127° Southeast 385 443 22,200 1,740 Climbing Albuquerque Center
04:57PM 32.8650 -111.4314 127° Southeast 397 457 23,900 1,620 Climbing Albuquerque Center
04:58PM 32.7964 -111.3244 127° Southeast 406 467 25,600 1,560 Climbing Albuquerque Center
04:59PM 32.7272 -111.2169 127° Southeast 408 470 27,100 1,320 Climbing Albuquerque Center
05:00PM 32.6572 -111.1050 127° Southeast 416 479 28,400 1,260 Climbing Albuquerque Center
05:01PM 32.5694 -110.9689 127° Southeast 430 495 29,800 1,500 Climbing Albuquerque Center
05:02PM 32.4956 -110.8558 128° Southeast 434 499 31,500 1,560 Climbing Albuquerque Center
05:03PM 32.4250 -110.7444 127° Southeast 431 496 33,000 1,140 Climbing Albuquerque Center
05:04PM 32.3528 -110.6347 128° Southeast 424 488 33,900 840 Climbing Albuquerque Center
05:05PM 32.3083 -110.5075 112° Southeast 431 496 34,800 480 Climbing Albuquerque Center
05:06PM 32.3064 -110.3617 91° East 440 506 35,000 60 Climbing Albuquerque Center
05:07PM 32.3036 -110.2022 91° East 456 525 35,000  Level Albuquerque Center
05:08PM 32.2700 -110.0600 106° East 451 519 35,000  Level Albuquerque Center
05:09PM 32.2278 -109.8892 106° East 452 520 35,000 -180 Level Albuquerque Center
05:10PM 32.2006 -109.7536 103° East 438 504 34,700 -600 Descending Albuquerque Center
05:11PM 32.1742 -109.6156 103° East 436 502 33,800 -840 Descending Albuquerque Center
05:12PM 32.1436 -109.4733 104° East 443 510 33,000 -420 Descending Albuquerque Center
05:13PM 32.1153 -109.3292 103° East 450 518 33,000  Level Albuquerque Center
05:14PM 32.0944 -109.1894 100° East 446 513 33,000  Level Albuquerque Center
05:15PM 32.0681 -109.0222 101° East 441 507 33,000  Level Albuquerque Center
05:16PM 32.0456 -108.8850 101° East 435 501 33,000  Level Albuquerque Center
05:18PM 32.0219 -108.7439 101° East 435 501 33,000  Level Albuquerque Center
05:19PM 32.0306 -108.5967 86° East 443 510 33,000  Level Albuquerque Center
05:20PM 32.0386 -108.4494 86° East 448 516 33,000  Level Albuquerque Center
05:21PM 32.0464 -108.3000 86° East 450 518 33,000  Level Albuquerque Center
05:22PM 32.0553 -108.1239 87° East 451 519 33,000 -60 Level Albuquerque Center
05:23PM 32.0561 -107.9792 90° East 449 517 32,900 -1,200 Descending Albuquerque Center
05:24PM 32.0581 -107.8378 89° East 441 507 30,600 -2,280 Descending Albuquerque Center
05:25PM 32.0578 -107.6986 90° East 434 499 28,200 -2,280 Descending Albuquerque Center
05:26PM 32.0583 -107.5650 90° East 423 487 25,900 -2,220 Descending Albuquerque Center
05:27PM 32.0608 -107.4358 89° East 411 473 23,700 -2,340 Descending Albuquerque Center
05:28PM 32.0639 -107.3017 88° East 377 434 21,400 -2,460 Descending Albuquerque Center
05:28PM 32.0639 -107.2642 90° East 374 430 20,700 -2,040 Descending Albuquerque Center
05:29PM 32.0636 -107.1703 90° East 375 432 19,100 -1,980 Descending Albuquerque Center
05:29PM 32.0642 -107.1439 89° East 364 419 18,700 -1,860 Descending Albuquerque Center
05:30PM 32.0639 -107.0556 90° East 361 415 17,200 -1,920 Descending Albuquerque Center
05:31PM 32.0639 -106.9436 90° East 350 403 15,100 -2,040 Descending Albuquerque Center
05:32PM 32.0653 -106.8350 89° East 339 390 13,100 -2,100 Descending Albuquerque Center
05:33PM 32.0425 -106.7186 103° East 314 361 10,900 -1,620 Descending Albuquerque Center
05:34PM 31.9525 -106.6808 160° South 295 339 9,700 -1,260 Descending Albuquerque Center
05:35PM 31.8903 -106.6536 160° South 282 325 8,300 -960 Descending Albuquerque Center
05:36PM 31.8225 -106.6228 159° South 262 302 7,800 -600 Descending Albuquerque Center
05:37PM 31.7664 -106.5858 151° Southeast 236 272 7,100 -780 Descending Albuquerque Center
05:38PM 31.7475 -106.5219 109° East 200 230 6,300 -900 Descending Albuquerque Center
05:38PM 31.7439 -106.5047 104° East 179 206 6,000 -1,140 Descending Albuquerque Center
05:39PM 31.7558 -106.4644 71° East 162 186 5,200 -900 Descending Albuquerque Center
05:40PM 31.7792 -106.4286 53° Northeast 145 167 4,500 -660 Descending Albuquerque Center
05:41PM 31.8111 -106.3847 49° Northeast 153 176 3,900 -540 Descending Albuquerque Center
05:43PM 31.8072 -106.3764 North  Level Estimated
05:50PM 31.8072 -106.3764 North  Level Estimated
05:51PM 31.8072 -106.3764 North  Level Estimated
05:52PM 31.8072 -106.3764 North  Level Estimated
05:53PM 31.8072 -106.3764 North  Level Estimated